createdAt,value
2022-10-14T00:00:43.217Z,88.18
2022-10-14T00:01:43.201Z,88.27
2022-10-14T00:02:42.958Z,88.56
2022-10-14T00:03:43.231Z,88.65
2022-10-14T00:04:43.168Z,88.75
2022-10-14T00:05:42.907Z,89.61
2022-10-14T00:06:43.143Z,90.17
2022-10-14T00:07:43.129Z,90.84
2022-10-14T00:08:42.862Z,90.17
2022-10-14T00:09:42.849Z,89.51
2022-10-14T00:10:43.093Z,89.22
2022-10-14T00:11:43.086Z,88.65
2022-10-14T00:12:43.067Z,88.08
2022-10-14T00:13:42.808Z,87.98
2022-10-14T00:14:42.792Z,87.51
2022-10-14T00:15:42.774Z,87.32
2022-10-14T00:16:42.767Z,87.13
2022-10-14T00:17:42.757Z,87.32
2022-10-14T00:18:43.021Z,87.03
2022-10-14T00:19:43.007Z,86.84
2022-10-14T00:20:42.978Z,86.27
2022-10-14T00:21:42.710Z,86.03
2022-10-14T00:22:42.947Z,85.27
2022-10-14T00:23:42.681Z,85.55
2022-10-14T00:24:42.668Z,85.55
2022-10-14T00:25:42.659Z,85.27
2022-10-14T00:26:42.902Z,86.51
2022-10-14T00:27:42.633Z,86.22
2022-10-14T00:28:42.733Z,86.03
2022-10-14T00:29:42.608Z,85.93
2022-10-14T00:30:42.597Z,86.12
2022-10-14T00:31:42.585Z,85.55
2022-10-14T00:32:42.833Z,85.93
2022-10-14T00:33:42.574Z,86.22
2022-10-14T00:34:42.834Z,86.32
2022-10-14T00:35:42.818Z,86.12
2022-10-14T00:36:42.796Z,86.51
2022-10-14T00:37:42.771Z,87.02
2022-10-14T00:38:42.509Z,86.79
2022-10-14T00:39:42.494Z,86.98
2022-10-14T00:40:42.745Z,86.98
2022-10-14T00:41:42.729Z,87.36
2022-10-14T00:42:42.461Z,87.12
2022-10-14T00:43:42.455Z,87.31
2022-10-14T00:44:42.443Z,87.4
2022-10-14T00:45:42.681Z,87.79
2022-10-14T00:46:42.417Z,87.88
2022-10-14T00:47:42.404Z,88.17
2022-10-14T00:48:42.391Z,88.07
2022-10-14T00:49:42.377Z,88.45
2022-10-14T00:50:42.395Z,88.17
2022-10-14T00:51:42.635Z,88.36
2022-10-14T00:52:42.604Z,88.93
2022-10-14T00:53:42.594Z,88.64
2022-10-14T00:54:42.580Z,89.79
2022-10-14T00:55:42.572Z,89.6
2022-10-14T00:56:42.557Z,89.89
2022-10-14T00:57:42.291Z,89.98
2022-10-14T00:58:42.534Z,90.64
2022-10-14T00:59:42.520Z,90.17
2022-10-14T01:00:42.422Z,90.74
2022-10-14T01:01:42.241Z,90.84
2022-10-14T01:02:42.492Z,91.41
2022-10-14T01:03:42.473Z,91.31
2022-10-14T01:04:42.474Z,91.5
2022-10-14T01:05:42.453Z,91.69
2022-10-14T01:06:42.217Z,91.41
2022-10-14T01:07:42.455Z,91.5
2022-10-14T01:08:42.169Z,91.5
2022-10-14T01:09:42.413Z,91.41
2022-10-14T01:10:42.404Z,91.6
2022-10-14T01:11:42.389Z,91.69
2022-10-14T01:12:42.125Z,92.36
2022-10-14T01:13:42.377Z,92.36
2022-10-14T01:14:42.356Z,92.36
2022-10-14T01:15:42.087Z,92.27
2022-10-14T01:16:42.334Z,92.65
2022-10-14T01:17:42.075Z,93.03
2022-10-14T01:18:42.052Z,93.03
2022-10-14T01:19:42.045Z,93.41
2022-10-14T01:20:42.038Z,93.41
2022-10-14T01:21:42.025Z,93.7
2022-10-14T01:22:42.291Z,94.56
2022-10-14T01:23:42.287Z,94.08
2022-10-14T01:24:42.240Z,94.27
2022-10-14T01:25:41.981Z,94.74
2022-10-14T01:26:42.218Z,94.84
2022-10-14T01:27:41.963Z,94.56
2022-10-14T01:28:42.100Z,94.74
2022-10-14T01:29:42.186Z,94.74
2022-10-14T01:30:42.177Z,94.74
2022-10-14T01:31:41.911Z,95.41
2022-10-14T01:32:41.894Z,94.84
2022-10-14T01:33:41.886Z,95.98
2022-10-14T01:34:42.138Z,95.61
2022-10-14T01:35:41.866Z,95.79
2022-10-14T01:36:41.856Z,95.41
2022-10-14T01:37:41.842Z,95.98
2022-10-14T01:38:41.859Z,96.17
2022-10-14T01:39:42.111Z,96.65
2022-10-14T01:40:42.068Z,97.13
2022-10-14T01:41:41.806Z,96.84
2022-10-14T01:42:42.036Z,97.22
2022-10-14T01:43:41.780Z,97.32
2022-10-14T01:44:42.021Z,97.8
2022-10-14T01:45:42.010Z,97.61
2022-10-14T01:46:41.995Z,97.7
2022-10-14T01:47:41.731Z,98.18
2022-10-14T01:48:41.978Z,98.27
2022-10-14T01:49:41.713Z,98.27
2022-10-14T01:50:41.693Z,99.13
2022-10-14T01:51:41.937Z,98.94
2022-10-14T01:52:41.677Z,99.51
2022-10-14T01:53:41.667Z,99.41
2022-10-14T01:54:41.677Z,99.04
2022-10-14T01:55:41.916Z,99.04
2022-10-14T01:56:43.157Z,99.6
2022-10-14T01:57:41.615Z,99.99
2022-10-14T01:58:41.861Z,99.99
2022-10-14T01:59:41.600Z,99.99
2022-10-14T02:00:41.597Z,99.99
2022-10-14T02:01:41.953Z,99.99
2022-10-14T02:02:41.819Z,99.99
2022-10-14T02:03:41.807Z,99.99
2022-10-14T02:04:41.802Z,99.99
2022-10-14T02:05:41.528Z,99.99
2022-10-14T02:06:41.538Z,99.99
2022-10-14T02:07:41.772Z,99.99
2022-10-14T02:08:41.493Z,99.99
2022-10-14T02:09:41.479Z,99.99
2022-10-14T02:10:41.763Z,99.99
2022-10-14T02:11:41.738Z,99.99
2022-10-14T02:12:41.706Z,99.99
2022-10-14T02:13:41.443Z,99.99
2022-10-14T02:14:41.679Z,99.99
2022-10-14T02:15:41.416Z,99.99
2022-10-14T02:16:41.662Z,99.99
2022-10-14T02:17:41.720Z,99.99
2022-10-14T02:18:41.642Z,99.99
2022-10-14T02:19:41.623Z,99.99
2022-10-14T02:20:41.617Z,99.99
2022-10-14T02:21:41.684Z,99.99
2022-10-14T02:22:41.336Z,99.99
2022-10-14T02:23:41.325Z,99.99
2022-10-14T02:24:41.623Z,99.99
2022-10-14T02:25:41.356Z,99.99
2022-10-14T02:26:41.627Z,99.99
2022-10-14T02:27:41.622Z,99.99
2022-10-14T02:28:41.719Z,99.99
2022-10-14T02:29:41.314Z,99.99
2022-10-14T02:30:41.303Z,99.99
2022-10-14T02:31:41.550Z,99.99
2022-10-14T02:32:41.539Z,99.99
2022-10-14T02:33:41.265Z,99.99
2022-10-14T02:34:41.262Z,99.99
2022-10-14T02:35:41.498Z,99.99
2022-10-14T02:36:41.497Z,99.99
2022-10-14T02:37:41.482Z,99.99
2022-10-14T02:38:41.479Z,99.99
2022-10-14T02:39:41.455Z,99.99
2022-10-14T02:40:41.443Z,99.99
2022-10-14T02:41:41.180Z,99.99
2022-10-14T02:42:41.195Z,99.99
2022-10-14T02:43:41.433Z,99.99
2022-10-14T02:44:41.399Z,99.99
2022-10-14T02:45:41.384Z,99.99
2022-10-14T02:46:41.381Z,99.99
2022-10-14T02:47:41.368Z,99.99
2022-10-14T02:48:41.353Z,99.99
2022-10-14T02:49:41.086Z,99.99
2022-10-14T02:50:41.331Z,99.99
2022-10-14T02:51:41.064Z,99.99
2022-10-14T02:52:41.306Z,99.99
2022-10-14T02:53:41.041Z,99.99
2022-10-14T02:54:41.028Z,99.99
2022-10-14T02:55:41.027Z,99.99
2022-10-14T02:56:41.265Z,99.99
2022-10-14T02:57:41.256Z,99.99
2022-10-14T02:58:41.009Z,99.99
2022-10-14T02:59:41.255Z,99.99
2022-10-14T03:00:40.963Z,99.99
2022-10-14T03:01:41.046Z,99.99
2022-10-14T03:02:41.189Z,99.99
2022-10-14T03:03:40.930Z,99.99
2022-10-14T03:04:41.172Z,99.99
2022-10-14T03:05:41.165Z,99.99
2022-10-14T03:06:41.150Z,99.99
2022-10-14T03:07:41.142Z,99.99
2022-10-14T03:08:41.137Z,99.99
2022-10-14T03:09:41.117Z,99.99
2022-10-14T03:10:40.846Z,99.99
2022-10-14T03:11:41.094Z,99.99
2022-10-14T03:12:41.093Z,99.99
2022-10-14T03:13:41.077Z,99.99
2022-10-14T03:14:40.826Z,99.99
2022-10-14T03:15:41.072Z,99.99
2022-10-14T03:16:40.783Z,99.99
2022-10-14T03:17:41.025Z,99.99
2022-10-14T03:18:41.071Z,99.99
2022-10-14T03:19:40.759Z,99.99
2022-10-14T03:20:40.733Z,99.99
2022-10-14T03:21:40.978Z,99.99
2022-10-14T03:22:40.715Z,99.99
2022-10-14T03:23:40.706Z,99.99
2022-10-14T03:24:40.947Z,99.99
2022-10-14T03:25:40.938Z,99.99
2022-10-14T03:26:40.668Z,99.99
2022-10-14T03:27:40.671Z,99.99
2022-10-14T03:28:41.070Z,99.99
2022-10-14T03:29:40.637Z,99.99
2022-10-14T03:30:40.897Z,99.99
2022-10-14T03:31:40.891Z,99.99
2022-10-14T03:32:40.864Z,99.99
2022-10-14T03:49:47.677Z,99.99
2022-10-14T03:50:47.362Z,99.99
2022-10-14T03:51:47.608Z,99.99
2022-10-14T03:52:53.335Z,99.99
2022-10-14T03:53:47.567Z,99.99
2022-10-14T03:54:47.303Z,99.99
2022-10-14T03:55:47.552Z,99.99
2022-10-14T03:56:47.538Z,99.99
2022-10-14T03:57:47.513Z,99.99
2022-10-14T03:58:47.503Z,99.99
2022-10-14T03:59:47.496Z,99.99
2022-10-14T04:00:47.225Z,99.99
2022-10-14T04:01:47.634Z,99.99
2022-10-14T04:02:47.197Z,99.99
2022-10-14T04:03:47.190Z,99.99
2022-10-14T04:04:47.442Z,99.99
2022-10-14T04:05:47.463Z,99.99
2022-10-14T04:06:47.410Z,99.99
2022-10-14T04:07:47.396Z,99.99
2022-10-14T04:08:47.133Z,99.99
2022-10-14T04:09:47.373Z,99.99
2022-10-14T04:10:47.354Z,99.99
2022-10-14T04:11:47.341Z,99.99
2022-10-14T04:12:47.338Z,99.99
2022-10-14T04:13:47.062Z,99.99
2022-10-14T04:14:47.307Z,99.99
2022-10-14T04:15:47.048Z,99.99
2022-10-14T04:16:52.079Z,99.99
2022-10-14T04:17:47.016Z,99.99
2022-10-14T04:18:47.269Z,99.99
2022-10-14T04:19:47.277Z,99.99
2022-10-14T04:20:46.983Z,99.99
2022-10-14T04:21:47.275Z,99.99
2022-10-14T04:22:46.962Z,99.99
2022-10-14T04:23:47.205Z,99.99
2022-10-14T04:24:47.195Z,99.99
2022-10-14T04:25:47.179Z,99.99
2022-10-14T04:26:46.927Z,99.99
2022-10-14T04:27:47.156Z,99.99
2022-10-14T04:28:47.285Z,99.99
2022-10-14T04:29:47.133Z,99.99
2022-10-14T04:30:47.125Z,99.99
2022-10-14T04:31:46.861Z,99.99
2022-10-14T04:32:47.101Z,99.99
2022-10-14T04:33:47.088Z,99.99
2022-10-14T04:34:47.080Z,99.99
2022-10-14T04:35:47.066Z,99.99
2022-10-14T04:36:46.802Z,99.99
2022-10-14T04:37:47.091Z,99.99
2022-10-14T04:38:47.039Z,99.99
2022-10-14T04:39:47.027Z,99.99
2022-10-14T04:40:47.012Z,99.99
2022-10-14T04:41:47.009Z,99.99
2022-10-14T04:42:46.736Z,99.99
2022-10-14T04:43:46.979Z,99.99
2022-10-14T04:44:46.712Z,99.99
2022-10-14T04:45:46.701Z,99.99
2022-10-14T04:46:46.942Z,99.99
2022-10-14T04:47:50.737Z,99.99
2022-10-14T04:48:46.669Z,99.99
2022-10-14T04:49:46.658Z,99.99
2022-10-14T04:50:46.652Z,99.99
2022-10-14T04:51:46.890Z,99.99
2022-10-14T04:52:46.887Z,99.99
2022-10-14T04:53:46.911Z,99.99
2022-10-14T04:54:46.863Z,99.99
2022-10-14T04:55:46.845Z,99.99
2022-10-14T04:56:46.846Z,99.99
2022-10-14T04:57:46.569Z,99.99
2022-10-14T04:58:46.806Z,99.99
2022-10-14T04:59:46.543Z,99.99
2022-10-14T05:00:46.794Z,99.99
2022-10-14T05:01:46.607Z,99.99
2022-10-14T05:02:46.764Z,99.99
2022-10-14T05:03:46.755Z,99.99
2022-10-14T05:04:46.742Z,99.99
2022-10-14T05:05:46.740Z,99.99
2022-10-14T05:06:46.726Z,99.99
2022-10-14T05:07:46.708Z,99.99
2022-10-14T05:08:46.699Z,99.99
2022-10-14T05:09:55.545Z,99.99
2022-10-14T05:10:46.429Z,99.99
2022-10-14T05:11:46.674Z,99.99
2022-10-14T05:12:46.660Z,99.99
2022-10-14T05:13:46.647Z,99.99
2022-10-14T05:14:46.372Z,99.99
2022-10-14T05:15:46.627Z,99.99
2022-10-14T05:16:46.614Z,99.99
2022-10-14T05:17:46.596Z,99.99
2022-10-14T05:18:46.584Z,99.99
2022-10-14T05:19:46.323Z,99.99
2022-10-14T05:20:46.568Z,99.99
2022-10-14T05:21:46.556Z,99.99
2022-10-14T05:22:46.537Z,99.99
2022-10-14T05:23:46.532Z,99.99
2022-10-14T05:24:46.525Z,99.99
2022-10-14T05:25:46.576Z,99.99
2022-10-14T05:26:46.502Z,99.99
2022-10-14T05:27:46.487Z,99.99
2022-10-14T05:28:46.642Z,99.99
2022-10-14T05:29:46.474Z,99.99
2022-10-14T05:30:46.197Z,99.99
2022-10-14T05:31:46.444Z,99.99
2022-10-14T05:32:46.431Z,99.99
2022-10-14T05:33:46.424Z,99.99
2022-10-14T05:34:46.421Z,99.99
2022-10-14T05:36:01.382Z,99.99
2022-10-14T05:36:46.396Z,99.99
2022-10-14T05:37:46.446Z,99.99
2022-10-14T05:38:46.369Z,99.99
2022-10-14T05:39:46.356Z,99.99
2022-10-14T05:40:46.103Z,99.99
2022-10-14T05:41:46.385Z,99.99
2022-10-14T05:42:46.326Z,99.99
2022-10-14T05:43:46.306Z,99.99
2022-10-14T05:44:46.045Z,99.99
2022-10-14T05:45:46.286Z,99.99
2022-10-14T05:46:46.281Z,99.99
2022-10-14T05:47:46.267Z,99.99
2022-10-14T05:48:46.257Z,99.99
2022-10-14T05:49:46.255Z,99.99
2022-10-14T05:50:45.978Z,99.99
2022-10-14T05:51:45.972Z,99.99
2022-10-14T05:52:46.209Z,99.99
2022-10-14T05:53:46.199Z,99.99
2022-10-14T05:54:46.194Z,99.99
2022-10-14T05:55:46.177Z,99.99
2022-10-14T05:56:45.910Z,99.99
2022-10-14T05:57:46.208Z,99.99
2022-10-14T05:58:45.897Z,99.99
2022-10-14T05:59:46.132Z,99.99
2022-10-14T06:00:45.869Z,99.99
2022-10-14T06:01:45.854Z,99.99
2022-10-14T06:02:45.950Z,99.99
2022-10-14T06:03:46.087Z,99.99
2022-10-14T06:04:46.075Z,99.99
2022-10-14T06:05:46.071Z,99.99
2022-10-14T06:06:46.056Z,99.99
2022-10-14T06:07:46.046Z,99.99
2022-10-14T06:08:46.037Z,99.99
2022-10-14T06:09:45.770Z,99.99
2022-10-14T06:10:45.758Z,99.99
2022-10-14T06:11:46.005Z,99.99
2022-10-14T06:12:45.997Z,99.99
2022-10-14T06:13:46.030Z,99.99
2022-10-14T06:14:45.977Z,99.99
2022-10-14T06:15:45.698Z,99.99
2022-10-14T06:16:45.946Z,99.99
2022-10-14T06:17:45.935Z,99.99
2022-10-14T06:18:46.783Z,99.99
2022-10-14T06:19:45.908Z,99.99
2022-10-14T06:20:45.905Z,99.99
2022-10-14T06:21:45.891Z,99.99
2022-10-14T06:22:45.635Z,99.99
2022-10-14T06:23:45.627Z,99.99
2022-10-14T06:24:45.605Z,99.99
2022-10-14T06:25:45.593Z,99.99
2022-10-14T06:26:45.583Z,99.99
2022-10-14T06:27:45.572Z,99.99
2022-10-14T06:28:45.960Z,99.99
2022-10-14T06:29:45.852Z,99.99
2022-10-14T06:30:45.537Z,99.99
2022-10-14T06:31:45.789Z,99.99
2022-10-14T06:32:45.781Z,99.99
2022-10-14T06:33:45.775Z,99.99
2022-10-14T06:34:45.757Z,99.99
2022-10-14T06:35:45.492Z,99.99
2022-10-14T06:36:45.730Z,99.99
2022-10-14T06:37:45.460Z,99.99
2022-10-14T06:38:45.706Z,99.99
2022-10-14T06:39:45.709Z,99.99
2022-10-14T06:40:45.432Z,99.99
2022-10-14T06:41:45.695Z,99.99
2022-10-14T06:42:45.660Z,99.99
2022-10-14T06:43:45.404Z,99.99
2022-10-14T06:44:45.645Z,99.99
2022-10-14T06:45:45.677Z,99.99
2022-10-14T06:46:45.613Z,99.99
2022-10-14T06:47:45.612Z,99.99
2022-10-14T06:48:50.383Z,99.99
2022-10-14T06:49:45.585Z,99.99
2022-10-14T06:50:45.319Z,99.99
2022-10-14T06:51:45.324Z,99.99
2022-10-14T06:52:45.553Z,99.99
2022-10-14T06:53:45.287Z,99.99
2022-10-14T06:54:50.579Z,99.99
2022-10-14T06:55:45.282Z,99.99
2022-10-14T06:56:45.250Z,99.99
2022-10-14T06:57:45.499Z,99.99
2022-10-14T06:58:45.489Z,99.99
2022-10-14T06:59:45.222Z,99.99
2022-10-14T07:00:50.408Z,99.99
2022-10-14T07:01:45.618Z,99.99
2022-10-14T07:02:45.189Z,99.99
2022-10-14T07:03:45.182Z,99.99
2022-10-14T07:04:45.428Z,99.99
2022-10-14T07:05:45.411Z,99.99
2022-10-14T07:06:45.398Z,99.99
2022-10-14T07:07:45.395Z,99.99
2022-10-14T07:08:45.382Z,99.99
2022-10-14T07:09:45.385Z,99.99
2022-10-14T07:10:45.101Z,99.99
2022-10-14T07:11:45.093Z,99.99
2022-10-14T07:12:45.334Z,99.99
2022-10-14T07:13:45.068Z,99.99
2022-10-14T07:14:45.063Z,99.99
2022-10-14T07:15:45.306Z,99.99
2022-10-14T07:16:45.318Z,99.99
2022-10-14T07:17:45.310Z,99.99
2022-10-14T07:18:45.019Z,99.99
2022-10-14T07:19:45.261Z,99.99
2022-10-14T07:20:44.999Z,99.99
2022-10-14T07:21:45.235Z,99.99
2022-10-14T07:22:45.233Z,99.99
2022-10-14T07:23:45.215Z,99.99
2022-10-14T07:24:45.100Z,99.99
2022-10-14T07:25:45.193Z,99.99
2022-10-14T07:26:44.949Z,99.99
2022-10-14T07:27:45.180Z,99.99
2022-10-14T07:28:45.019Z,99.99
2022-10-14T07:29:44.901Z,99.99
2022-10-14T07:30:44.889Z,99.99
2022-10-14T07:31:44.876Z,99.99
2022-10-14T07:32:44.892Z,99.99
2022-10-14T07:33:45.137Z,99.99
2022-10-14T07:34:45.098Z,99.99
2022-10-14T07:35:45.088Z,99.99
2022-10-14T07:36:45.081Z,99.99
2022-10-14T07:37:45.086Z,99.99
2022-10-14T07:38:44.806Z,99.99
2022-10-14T07:39:44.790Z,99.99
2022-10-14T07:40:44.781Z,99.99
2022-10-14T07:41:45.031Z,99.99
2022-10-14T07:42:44.761Z,99.99
2022-10-14T07:43:44.746Z,99.99
2022-10-14T07:44:44.997Z,99.99
2022-10-14T07:45:44.730Z,99.99
2022-10-14T07:46:44.721Z,99.99
2022-10-14T07:47:44.960Z,99.99
2022-10-14T07:48:59.455Z,99.99
2022-10-14T07:49:44.977Z,99.99
2022-10-14T07:50:44.677Z,99.99
2022-10-14T07:51:44.676Z,99.99
2022-10-14T07:52:44.915Z,99.99
2022-10-14T07:53:44.897Z,99.99
2022-10-14T07:54:44.892Z,99.99
2022-10-14T07:55:44.879Z,99.99
2022-10-14T07:56:44.868Z,99.99
2022-10-14T07:57:44.857Z,99.99
2022-10-14T07:58:47.090Z,99.99
2022-10-14T07:59:44.849Z,99.99
2022-10-14T08:00:44.835Z,99.99
2022-10-14T08:01:44.679Z,99.99
2022-10-14T08:02:44.809Z,99.99
2022-10-14T08:03:44.542Z,99.99
2022-10-14T08:04:44.893Z,99.99
2022-10-14T08:05:44.802Z,99.99
2022-10-14T08:06:44.797Z,99.99
2022-10-14T08:07:44.764Z,99.99
2022-10-14T08:08:44.752Z,99.99
2022-10-14T08:09:44.496Z,99.99
2022-10-14T08:10:44.738Z,99.99
2022-10-14T08:11:44.722Z,99.99
2022-10-14T08:12:44.706Z,99.99
2022-10-14T08:13:48.270Z,99.99
2022-10-14T08:14:44.523Z,99.99
2022-10-14T08:15:44.420Z,99.99
2022-10-14T08:16:44.911Z,99.99
2022-10-14T08:17:44.656Z,99.99
2022-10-14T08:18:44.392Z,99.99
2022-10-14T08:19:44.381Z,99.99
2022-10-14T08:20:44.407Z,99.99
2022-10-14T08:21:44.650Z,99.99
2022-10-14T08:22:44.356Z,99.99
2022-10-14T08:23:44.607Z,99.99
2022-10-14T08:24:44.333Z,99.99
2022-10-14T08:25:44.585Z,99.99
2022-10-14T08:26:44.311Z,99.99
2022-10-14T08:27:44.558Z,99.99
2022-10-14T08:28:44.453Z,99.99
2022-10-14T08:29:44.541Z,99.99
2022-10-14T08:30:44.528Z,99.99
2022-10-14T08:31:44.271Z,99.99
2022-10-14T08:32:44.511Z,99.99
2022-10-14T08:33:44.504Z,99.99
2022-10-14T08:34:44.494Z,99.99
2022-10-14T08:35:44.495Z,99.99
2022-10-14T08:36:44.500Z,99.99
2022-10-14T08:37:44.487Z,99.99
2022-10-14T08:38:44.201Z,99.99
2022-10-14T08:39:44.196Z,99.99
2022-10-14T08:40:44.448Z,99.99
2022-10-14T08:41:44.430Z,99.99
2022-10-14T08:42:44.428Z,99.99
2022-10-14T08:43:44.423Z,99.99
2022-10-14T08:44:44.413Z,99.99
2022-10-14T08:45:44.693Z,99.99
2022-10-14T08:46:47.916Z,99.99
2022-10-14T08:47:44.395Z,99.99
2022-10-14T08:48:44.113Z,99.99
2022-10-14T08:49:44.361Z,99.99
2022-10-14T08:50:44.099Z,99.99
2022-10-14T08:51:44.341Z,99.99
2022-10-14T08:52:44.394Z,99.99
2022-10-14T08:53:44.350Z,99.99
2022-10-14T08:54:44.315Z,99.99
2022-10-14T08:55:44.315Z,99.99
2022-10-14T08:56:44.049Z,99.99
2022-10-14T08:57:44.311Z,99.99
2022-10-14T08:58:44.288Z,99.99
2022-10-14T08:59:44.272Z,99.99
2022-10-14T09:00:44.274Z,99.99
2022-10-14T09:01:44.254Z,99.99
2022-10-14T09:02:43.990Z,99.99
2022-10-14T09:03:44.151Z,99.99
2022-10-14T09:04:44.232Z,99.99
2022-10-14T09:05:45.229Z,99.99
2022-10-14T09:06:43.960Z,99.99
2022-10-14T09:07:44.288Z,99.99
2022-10-14T09:08:44.222Z,99.99
2022-10-14T09:09:44.311Z,99.99
2022-10-14T09:10:44.184Z,99.99
2022-10-14T09:11:44.168Z,99.99
2022-10-14T09:12:43.915Z,99.99
2022-10-14T09:13:44.152Z,99.99
2022-10-14T09:14:44.143Z,99.99
2022-10-14T09:15:43.874Z,99.99
2022-10-14T09:16:44.128Z,99.99
2022-10-14T09:17:44.122Z,99.99
2022-10-14T09:18:43.864Z,99.99
2022-10-14T09:19:44.097Z,99.99
2022-10-14T09:20:44.095Z,99.99
2022-10-14T09:21:55.141Z,99.99
2022-10-14T09:22:44.169Z,99.99
2022-10-14T09:23:44.063Z,99.99
2022-10-14T09:24:44.088Z,99.99
2022-10-14T09:25:44.068Z,99.99
2022-10-14T09:26:44.084Z,99.99
2022-10-14T09:27:44.204Z,99.99
2022-10-14T09:28:44.163Z,99.99
2022-10-14T09:29:43.762Z,99.99
2022-10-14T09:30:43.751Z,99.99
2022-10-14T09:31:43.745Z,99.99
2022-10-14T09:32:43.985Z,99.99
2022-10-14T09:33:45.254Z,99.99
2022-10-14T09:34:43.974Z,99.99
2022-10-14T09:35:43.957Z,99.99
2022-10-14T09:36:43.863Z,99.99
2022-10-14T09:37:43.698Z,99.99
2022-10-14T09:38:43.937Z,99.99
2022-10-14T09:39:43.670Z,99.99
2022-10-14T09:40:43.689Z,99.99
2022-10-14T09:41:43.937Z,99.99
2022-10-14T09:42:43.908Z,99.99
2022-10-14T09:43:43.895Z,99.99
2022-10-14T09:44:43.888Z,99.99
2022-10-14T09:45:43.871Z,99.99
2022-10-14T09:46:43.608Z,99.99
2022-10-14T09:47:43.598Z,99.99
2022-10-14T09:48:43.844Z,99.99
2022-10-14T09:49:43.589Z,99.99
2022-10-14T09:50:43.836Z,99.99
2022-10-14T09:51:43.568Z,99.99
2022-10-14T09:52:43.813Z,99.99
2022-10-14T09:53:43.806Z,99.99
2022-10-14T09:54:43.910Z,99.99
2022-10-14T09:55:43.536Z,99.99
2022-10-14T09:56:44.358Z,99.99
2022-10-14T09:57:43.800Z,99.99
2022-10-14T09:58:43.761Z,99.99
2022-10-14T09:59:43.754Z,99.99
2022-10-14T10:00:43.487Z,99.99
2022-10-14T10:01:43.736Z,99.99
2022-10-14T10:02:43.730Z,99.99
2022-10-14T10:03:44.175Z,99.99
2022-10-14T10:04:43.724Z,99.99
2022-10-14T10:05:43.711Z,99.99
2022-10-14T10:06:43.697Z,99.99
2022-10-14T10:07:43.690Z,99.99
2022-10-14T10:08:43.427Z,99.99
2022-10-14T10:09:43.418Z,99.99
2022-10-14T10:10:43.411Z,99.99
2022-10-14T10:11:43.660Z,99.99
2022-10-14T10:12:43.678Z,99.99
2022-10-14T10:13:43.669Z,99.99
2022-10-14T10:14:43.640Z,99.99
2022-10-14T10:15:43.764Z,99.99
2022-10-14T10:16:43.897Z,99.99
2022-10-14T10:17:43.493Z,99.99
2022-10-14T10:18:43.498Z,99.99
2022-10-14T10:19:43.475Z,99.99
2022-10-14T10:20:43.723Z,99.99
2022-10-14T10:21:43.725Z,99.99
2022-10-14T10:22:43.714Z,99.99
2022-10-14T10:23:43.700Z,99.99
2022-10-14T10:24:43.436Z,99.99
2022-10-14T10:25:43.688Z,99.99
2022-10-14T10:26:43.675Z,99.99
2022-10-14T10:27:43.414Z,99.99
2022-10-14T10:28:43.521Z,99.99
2022-10-14T10:29:43.682Z,99.99
2022-10-14T10:30:43.390Z,99.99
2022-10-14T10:31:43.374Z,99.99
2022-10-14T10:32:43.370Z,99.99
2022-10-14T10:33:43.623Z,99.99
2022-10-14T10:34:43.360Z,99.99
2022-10-14T10:35:43.351Z,99.99
2022-10-14T10:36:43.595Z,99.99
2022-10-14T10:37:43.337Z,99.43
2022-10-14T10:38:43.586Z,97.71
2022-10-14T10:39:43.319Z,97.09
2022-10-14T10:40:43.499Z,96.56
2022-10-14T10:41:43.604Z,96.56
2022-10-14T10:42:43.554Z,96.22
2022-10-14T10:43:43.551Z,94.12
2022-10-14T10:44:43.567Z,91.82
2022-10-14T10:45:43.993Z,92.21
2022-10-14T10:46:43.272Z,93.02
2022-10-14T10:47:43.539Z,92.87
2022-10-14T10:48:43.514Z,92.97
2022-10-14T10:49:43.302Z,92.06
2022-10-14T10:50:43.496Z,91.77
2022-10-14T10:51:43.484Z,90.15
2022-10-14T10:52:43.487Z,90.63
2022-10-14T10:53:43.470Z,91.01
2022-10-14T10:54:43.474Z,90.82
2022-10-14T10:55:43.288Z,90.34
2022-10-14T10:56:43.457Z,91.01
2022-10-14T10:57:43.440Z,90.91
2022-10-14T10:58:43.194Z,91.05
2022-10-14T10:59:43.431Z,91.15
2022-10-14T11:00:43.192Z,86.94
2022-10-14T11:01:43.640Z,86.27
2022-10-14T11:02:43.411Z,87.03
2022-10-14T11:03:43.396Z,86.46
2022-10-14T11:04:43.141Z,86.55
2022-10-14T11:05:43.398Z,86.36
2022-10-14T11:06:43.121Z,86.27
2022-10-14T11:07:43.367Z,85.6
2022-10-14T11:08:43.371Z,86.36
2022-10-14T11:09:43.355Z,86.65
2022-10-14T11:10:43.094Z,87.13
2022-10-14T11:11:43.350Z,87.41
2022-10-14T11:12:43.090Z,87.41
2022-10-14T11:13:43.076Z,86.46
2022-10-14T11:14:43.066Z,86.65
2022-10-14T11:15:43.312Z,87.03
2022-10-14T11:16:43.338Z,87.61
2022-10-14T11:17:43.631Z,86.55
2022-10-14T11:18:43.041Z,87.41
2022-10-14T11:19:43.031Z,87.03
2022-10-14T11:20:43.028Z,88.18
2022-10-14T11:21:43.277Z,87.13
2022-10-14T11:22:43.269Z,85.6
2022-10-14T11:23:43.008Z,85.12
2022-10-14T11:24:43.254Z,85.41
2022-10-14T11:25:43.247Z,86.17
2022-10-14T11:26:42.987Z,86.84
2022-10-14T11:27:42.974Z,86.74
2022-10-14T11:28:43.157Z,86.74
2022-10-14T11:29:43.220Z,86.94
2022-10-14T11:30:43.211Z,86.21
2022-10-14T11:31:43.218Z,86.41
2022-10-14T11:32:43.213Z,86.5
2022-10-14T11:33:43.228Z,86.31
2022-10-14T11:34:43.185Z,85.74
2022-10-14T11:35:43.184Z,85.45
2022-10-14T11:36:42.908Z,84.97
2022-10-14T11:37:42.907Z,85.74
2022-10-14T11:38:42.905Z,85.64
2022-10-14T11:39:43.147Z,84.39
2022-10-14T11:40:43.141Z,83.72
2022-10-14T11:41:43.137Z,84.3
2022-10-14T11:42:42.876Z,83.92
2022-10-14T11:43:42.866Z,83.25
2022-10-14T11:44:42.868Z,83.34
2022-10-14T11:45:43.108Z,82.96
2022-10-14T11:46:43.106Z,82.86
2022-10-14T11:47:43.116Z,82.57
2022-10-14T11:48:43.113Z,82.09
2022-10-14T11:49:43.104Z,82.48
2022-10-14T11:50:43.091Z,83.34
2022-10-14T11:51:43.098Z,82.86
2022-10-14T11:52:43.063Z,82.76
2022-10-14T11:53:42.814Z,82.48
2022-10-14T11:54:43.050Z,81.43
2022-10-14T11:55:42.790Z,80.76
2022-10-14T11:56:42.780Z,80.66
2022-10-14T11:57:42.785Z,81.33
2022-10-14T11:58:43.022Z,81.43
2022-10-14T11:59:43.031Z,81.23
2022-10-14T12:00:42.754Z,81.13
2022-10-14T12:01:43.009Z,81.23
2022-10-14T12:02:42.925Z,80.94
2022-10-14T12:03:43.008Z,80.51
2022-10-14T12:04:42.832Z,80.12
2022-10-14T12:05:43.096Z,79.74
2022-10-14T12:06:43.063Z,80.12
2022-10-14T12:07:43.045Z,80.22
2022-10-14T12:08:43.040Z,80.51
2022-10-14T12:09:43.039Z,80.79
2022-10-14T12:10:43.028Z,80.51
2022-10-14T12:11:43.017Z,79.26
2022-10-14T12:12:43.011Z,79.45
2022-10-14T12:13:43.007Z,79.36
2022-10-14T12:14:42.746Z,79.74
2022-10-14T12:15:42.758Z,80.41
2022-10-14T12:16:42.728Z,80.7
2022-10-14T12:17:43.034Z,80.7
2022-10-14T12:18:42.721Z,80.6
2022-10-14T12:19:42.978Z,80.51
2022-10-14T12:20:42.987Z,79.93
2022-10-14T12:21:45.567Z,80.6
2022-10-14T12:22:42.947Z,81.37
2022-10-14T12:23:42.687Z,80.89
2022-10-14T12:24:42.681Z,81.66
2022-10-14T12:25:42.932Z,81.27
2022-10-14T12:26:42.929Z,81.27
2022-10-14T12:27:42.669Z,81.56
2022-10-14T12:28:42.818Z,81.37
2022-10-14T12:29:42.645Z,82.04
2022-10-14T12:30:42.645Z,81.85
2022-10-14T12:31:42.642Z,81.56
2022-10-14T12:32:42.884Z,81.46
2022-10-14T12:33:42.620Z,81.56
2022-10-14T12:34:42.623Z,81.95
2022-10-14T12:35:42.865Z,81.46
2022-10-14T12:36:42.893Z,81.46
2022-10-14T12:37:42.920Z,82.23
2022-10-14T12:38:42.590Z,82.23
2022-10-14T12:39:42.846Z,81.13
2022-10-14T12:40:42.584Z,81.08
2022-10-14T12:41:42.839Z,82.23
2022-10-14T12:42:42.890Z,82
2022-10-14T12:43:42.822Z,82.38
2022-10-14T12:44:42.587Z,82.57
2022-10-14T12:46:42.543Z,83.05
2022-10-14T12:47:42.548Z,83.34
2022-10-14T12:48:42.787Z,83.05
2022-10-14T12:49:42.519Z,83.05
2022-10-14T12:50:42.518Z,83.25
2022-10-14T12:51:42.766Z,82.67
2022-10-14T12:52:42.783Z,82.57
2022-10-14T12:53:42.787Z,82.48
2022-10-14T12:54:42.895Z,82.38
2022-10-14T12:55:42.488Z,82.67
2022-10-14T12:56:42.733Z,81.9
2022-10-14T12:57:44.852Z,81.52
2022-10-14T12:58:42.724Z,81.33
2022-10-14T12:59:42.472Z,81.62
2022-10-14T13:00:42.708Z,81.71
2022-10-14T13:01:42.778Z,82.19
2022-10-14T13:02:42.437Z,82.57
2022-10-14T13:03:42.690Z,82.96
2022-10-14T13:04:42.427Z,83.78
2022-10-14T13:05:42.669Z,83.87
2022-10-14T13:06:42.452Z,83.68
2022-10-14T13:07:44.279Z,84.06
2022-10-14T13:08:42.686Z,84.26
2022-10-14T13:09:42.675Z,85.21
2022-10-14T13:10:48.588Z,84.16